sensor_id;sensor_type;location;lat;lon;timestamp;pressure;altitude;pressure_sealevel;temperature;humidity
24868;BME280;12941;48.698;9.310;2024-03-23T00:52:37;97177.70000000001;;;14.89;54.871
24868;BME280;12941;48.698;9.310;2024-03-23T00:53:41;97169.3;;;14.87;54.923
24868;BME280;12941;48.698;9.310;2024-03-23T00:54:47;97166.7;;;14.87;54.879
24868;BME280;12941;48.698;9.310;2024-03-23T00:55:47;97164.09999999999;;;14.87;54.824
24868;BME280;12941;48.698;9.310;2024-03-23T00:56:47;97162.40000000001;;;14.88;54.227
24868;BME280;12941;48.698;9.310;2024-03-23T00:57:47;97161.40000000001;;;14.89;54.15
24868;BME280;12941;48.698;9.310;2024-03-23T00:58:51;97166.4;;;14.9;54.556
24868;BME280;12941;48.698;9.310;2024-03-23T00:59:51;97163.9;;;14.9;54.577
24868;BME280;12941;48.698;9.310;2024-03-23T01:00:57;97171.6;;;14.9;54.61
24868;BME280;12941;48.698;9.310;2024-03-23T01:01:57;97161.40000000001;;;14.89;54.706
24868;BME280;12941;48.698;9.310;2024-03-23T01:02:57;97156.4;;;14.87;54.585
24868;BME280;12941;48.698;9.310;2024-03-23T01:04:01;97154.6;;;14.88;54.575
24868;BME280;12941;48.698;9.310;2024-03-23T01:05:01;97149.59999999999;;;14.86;54.529
24868;BME280;12941;48.698;9.310;2024-03-23T01:06:02;97148.90000000001;;;14.84;54.669
24868;BME280;12941;48.698;9.310;2024-03-23T01:07:07;97151.5;;;14.84;54.473
24868;BME280;12941;48.698;9.310;2024-03-23T01:08:07;97148.1;;;14.84;54.482
24868;BME280;12941;48.698;9.310;2024-03-23T01:09:07;97151.5;;;14.84;54.712
24868;BME280;12941;48.698;9.310;2024-03-23T01:10:12;97137.8;;;14.84;54.646
24868;BME280;12941;48.698;9.310;2024-03-23T01:11:17;97130.1;;;14.82;54.765
24868;BME280;12941;48.698;9.310;2024-03-23T01:12:21;97130.1;;;14.82;54.862
24868;BME280;12941;48.698;9.310;2024-03-23T01:13:27;97125.8;;;14.83;54.448
24868;BME280;12941;48.698;9.310;2024-03-23T01:14:27;97133.7;;;14.81;54.337
24868;BME280;12941;48.698;9.310;2024-03-23T01:15:31;97136.1;;;14.83;54.524
24868;BME280;12941;48.698;9.310;2024-03-23T01:16:31;97125.9;;;14.81;54.696
24868;BME280;12941;48.698;9.310;2024-03-23T01:17:37;97132.7;;;14.82;54.71
24868;BME280;12941;48.698;9.310;2024-03-23T01:18:41;97131;;;14.83;54.819
24868;BME280;12941;48.698;9.310;2024-03-23T01:19:41;97135.29999999999;;;14.82;54.852
24868;BME280;12941;48.698;9.310;2024-03-23T01:20:41;97130.1;;;14.82;54.645
24868;BME280;12941;48.698;9.310;2024-03-23T01:21:47;97130.1;;;14.82;54.558
24868;BME280;12941;48.698;9.310;2024-03-23T01:22:51;97128.5;;;14.81;54.653
24868;BME280;12941;48.698;9.310;2024-03-23T01:23:52;97120.6;;;14.83;54.655
24868;BME280;12941;48.698;9.310;2024-03-23T01:24:57;97123.1;;;14.84;54.45
24868;BME280;12941;48.698;9.310;2024-03-23T01:25:57;97117.9;;;14.84;54.363
24868;BME280;12941;48.698;9.310;2024-03-23T01:26:57;97122.1;;;14.85;54.408
24868;BME280;12941;48.698;9.310;2024-03-23T01:28:02;97117.8;;;14.86;54.364
24868;BME280;12941;48.698;9.310;2024-03-23T01:29:07;97116;;;14.86;54.464
24868;BME280;12941;48.698;9.310;2024-03-23T01:30:12;97118.6;;;14.86;54.485
24868;BME280;12941;48.698;9.310;2024-03-23T01:31:12;97112.8;;;14.84;54.418
24868;BME280;12941;48.698;9.310;2024-03-23T01:32:17;97114.4;;;14.85;54.364
24868;BME280;12941;48.698;9.310;2024-03-23T01:33:22;97112.8;;;14.84;54.353
24868;BME280;12941;48.698;9.310;2024-03-23T01:34:22;97107.6;;;14.84;54.102
24868;BME280;12941;48.698;9.310;2024-03-23T01:35:27;97116.2;;;14.85;54.287
24868;BME280;12941;48.698;9.310;2024-03-23T01:36:27;97111.90000000001;;;14.84;54.428
24868;BME280;12941;48.698;9.310;2024-03-23T01:37:27;97111.1;;;14.83;54.525
24868;BME280;12941;48.698;9.310;2024-03-23T01:38:32;97117.9;;;14.84;54.604
24868;BME280;12941;48.698;9.310;2024-03-23T01:39:32;97117.1;;;14.84;54.656
24868;BME280;12941;48.698;9.310;2024-03-23T01:40:32;97109.5;;;14.82;54.601
24868;BME280;12941;48.698;9.310;2024-03-23T01:41:37;97111.40000000001;;;14.8;54.609
24868;BME280;12941;48.698;9.310;2024-03-23T01:42:42;97112.5;;;14.77;54.66
24868;BME280;12941;48.698;9.310;2024-03-23T01:43:47;97116.8;;;14.77;54.496
24868;BME280;12941;48.698;9.310;2024-03-23T01:44:52;97108.4;;;14.75;54.526
24868;BME280;12941;48.698;9.310;2024-03-23T01:45:52;97107.7;;;14.73;54.306
24868;BME280;12941;48.698;9.310;2024-03-23T01:46:52;97101.70000000001;;;14.72;54.349
24868;BME280;12941;48.698;9.310;2024-03-23T01:47:57;97098.40000000001;;;14.7;54.466
24868;BME280;12941;48.698;9.310;2024-03-23T01:49:02;97099.40000000001;;;14.69;55.053
24868;BME280;12941;48.698;9.310;2024-03-23T01:50:02;97104.7;;;14.68;54.931
24868;BME280;12941;48.698;9.310;2024-03-23T01:51:02;97102.09999999999;;;14.68;55.159
24868;BME280;12941;48.698;9.310;2024-03-23T01:52:07;97109.1;;;14.66;55.354
24868;BME280;12941;48.698;9.310;2024-03-23T01:53:12;97094.6;;;14.65;55.08
24868;BME280;12941;48.698;9.310;2024-03-23T01:54:12;97097.2;;;14.65;55.102
24868;BME280;12941;48.698;9.310;2024-03-23T01:55:17;97092.8;;;14.65;55.08
24868;BME280;12941;48.698;9.310;2024-03-23T01:56:22;97095.5;;;14.64;54.959
24868;BME280;12941;48.698;9.310;2024-03-23T01:57:23;97090.4;;;14.64;55.144
24868;BME280;12941;48.698;9.310;2024-03-23T01:58:27;97091.3;;;14.63;54.729
24868;BME280;12941;48.698;9.310;2024-03-23T01:59:27;97090.7;;;14.61;54.824
24868;BME280;12941;48.698;9.310;2024-03-23T02:00:32;97083.90000000001;;;14.6;54.899
24868;BME280;12941;48.698;9.310;2024-03-23T02:01:37;97082.4;;;14.57;54.842
24868;BME280;12941;48.698;9.310;2024-03-23T02:02:42;97083.2;;;14.58;54.974
24868;BME280;12941;48.698;9.310;2024-03-23T02:03:42;97080.7;;;14.56;55.069
24868;BME280;12941;48.698;9.310;2024-03-23T02:04:42;97079.9;;;14.56;55.242
24868;BME280;12941;48.698;9.310;2024-03-23T02:05:42;97082.5;;;14.56;55.221
24868;BME280;12941;48.698;9.310;2024-03-23T02:06:47;97074.1;;;14.54;55.152
24868;BME280;12941;48.698;9.310;2024-03-23T02:07:47;97075.7;;;14.55;55.263
24868;BME280;12941;48.698;9.310;2024-03-23T02:08:52;97071.6;;;14.52;55.424
24868;BME280;12941;48.698;9.310;2024-03-23T02:09:52;97070.7;;;14.53;55.589
24868;BME280;12941;48.698;9.310;2024-03-23T02:10:57;97063.8;;;14.54;55.697
24868;BME280;12941;48.698;9.310;2024-03-23T02:12:02;97058.6;;;14.54;55.665
24868;BME280;12941;48.698;9.310;2024-03-23T02:13:07;97061.2;;;14.54;55.653
24868;BME280;12941;48.698;9.310;2024-03-23T02:14:07;97060.5;;;14.52;55.825
24868;BME280;12941;48.698;9.310;2024-03-23T02:15:07;97062.09999999999;;;14.53;55.598
24868;BME280;12941;48.698;9.310;2024-03-23T02:16:12;97051;;;14.52;55.674
24868;BME280;12941;48.698;9.310;2024-03-23T02:17:12;97057.8;;;14.53;55.632
24868;BME280;12941;48.698;9.310;2024-03-23T02:18:17;97062.8;;;14.55;55.666
24868;BME280;12941;48.698;9.310;2024-03-23T02:19:17;97061;;;14.55;55.58
24868;BME280;12941;48.698;9.310;2024-03-23T02:20:17;97062.8;;;14.55;55.633
24868;BME280;12941;48.698;9.310;2024-03-23T02:21:17;97064.9;;;14.5;55.257
24868;BME280;12941;48.698;9.310;2024-03-23T02:22:22;97051.59999999999;;;14.44;54.782
24868;BME280;12941;48.698;9.310;2024-03-23T02:23:22;97062.09999999999;;;14.43;55.074
24868;BME280;12941;48.698;9.310;2024-03-23T02:24:29;97045.8;;;14.42;55.356
24868;BME280;12941;48.698;9.310;2024-03-23T02:25:27;97038;;;14.42;55.618
24868;BME280;12941;48.698;9.310;2024-03-23T02:26:32;97039.5;;;14.45;55.741
24868;BME280;12941;48.698;9.310;2024-03-23T02:27:32;97045.5;;;14.45;55.916
24868;BME280;12941;48.698;9.310;2024-03-23T02:28:37;97037.5;;;14.49;56.018
24868;BME280;12941;48.698;9.310;2024-03-23T02:29:37;97030.5;;;14.51;56.097
24868;BME280;12941;48.698;9.310;2024-03-23T02:30:42;97029.1;;;14.47;55.079
24868;BME280;12941;48.698;9.310;2024-03-23T02:31:47;97033.4;;;14.46;54.751
24868;BME280;12941;48.698;9.310;2024-03-23T02:32:47;97029.4;;;14.43;55.229
24868;BME280;12941;48.698;9.310;2024-03-23T02:33:52;97042.5;;;14.4;55.3
24868;BME280;12941;48.698;9.310;2024-03-23T02:34:52;97037.59999999999;;;14.37;55.253
24868;BME280;12941;48.698;9.310;2024-03-23T02:35:57;97029;;;14.37;55.154
24868;BME280;12941;48.698;9.310;2024-03-23T02:36:57;97035;;;14.37;55.829
24868;BME280;12941;48.698;9.310;2024-03-23T02:37:57;97036.2;;;14.33;55.889
24868;BME280;12941;48.698;9.310;2024-03-23T02:39:03;97032.3;;;14.29;55.253
24868;BME280;12941;48.698;9.310;2024-03-23T02:40:07;97034.3;;;14.26;55.184
24868;BME280;12941;48.698;9.310;2024-03-23T02:41:07;97037;;;14.24;55.377
24868;BME280;12941;48.698;9.310;2024-03-23T02:42:12;97037.09999999999;;;14.23;55.69
24868;BME280;12941;48.698;9.310;2024-03-23T02:43:12;97032.9;;;14.22;55.831
24868;BME280;12941;48.698;9.310;2024-03-23T02:44:12;97023.6;;;14.19;55.807
24868;BME280;12941;48.698;9.310;2024-03-23T02:45:17;97022;;;14.18;55.925
24868;BME280;12941;48.698;9.310;2024-03-23T02:46:22;97033.3;;;14.17;56.184
24868;BME280;12941;48.698;9.310;2024-03-23T02:47:22;97037.5;;;14.18;56.263
24868;BME280;12941;48.698;9.310;2024-03-23T02:48:27;97029.7;;;14.18;56.132
24868;BME280;12941;48.698;9.310;2024-03-23T02:49:32;97033.1;;;14.19;56.24
24868;BME280;12941;48.698;9.310;2024-03-23T02:50:37;97028.8;;;14.19;56.351
24868;BME280;12941;48.698;9.310;2024-03-23T02:51:42;97026.9;;;14.21;56.494
24868;BME280;12941;48.698;9.310;2024-03-23T02:52:42;97027.70000000001;;;14.22;56.538
24868;BME280;12941;48.698;9.310;2024-03-23T02:53:47;97021.8;;;14.21;56.527
24868;BME280;12941;48.698;9.310;2024-03-23T02:54:47;97026.8;;;14.23;56.518
24868;BME280;12941;48.698;9.310;2024-03-23T02:55:52;97019.1;;;14.23;56.561
24868;BME280;12941;48.698;9.310;2024-03-23T02:56:53;97024.2;;;14.23;56.474
24868;BME280;12941;48.698;9.310;2024-03-23T02:57:56;97026.70000000001;;;14.24;56.683
24868;BME280;12941;48.698;9.310;2024-03-23T02:58:57;97016.3;;;14.24;56.487
24868;BME280;12941;48.698;9.310;2024-03-23T02:59:57;97021.5;;;14.24;56.52
24868;BME280;12941;48.698;9.310;2024-03-23T03:01:02;97016.3;;;14.24;56.553
24868;BME280;12941;48.698;9.310;2024-03-23T03:02:03;97018;;;14.25;56.651
24868;BME280;12941;48.698;9.310;2024-03-23T03:03:07;97010.90000000001;;;14.27;56.632
24868;BME280;12941;48.698;9.310;2024-03-23T03:04:07;97013.4;;;14.29;56.603
24868;BME280;12941;48.698;9.310;2024-03-23T03:05:12;97015.8;;;14.3;56.844
24868;BME280;12941;48.698;9.310;2024-03-23T03:06:22;97006.3;;;14.31;57.062
24868;BME280;12941;48.698;9.310;2024-03-23T03:07:17;97011.3;;;14.32;56.857
24868;BME280;12941;48.698;9.310;2024-03-23T03:08:22;97006.2;;;14.32;56.813
24868;BME280;12941;48.698;9.310;2024-03-23T03:09:23;97007.1;;;14.31;56.931
24868;BME280;12941;48.698;9.310;2024-03-23T03:10:23;97000.09999999999;;;14.33;56.672
24868;BME280;12941;48.698;9.310;2024-03-23T03:11:23;97000.9;;;14.34;56.793
24868;BME280;12941;48.698;9.310;2024-03-23T03:12:23;97004.3;;;14.34;56.816
24868;BME280;12941;48.698;9.310;2024-03-23T03:13:27;97003.4;;;14.35;56.697
24868;BME280;12941;48.698;9.310;2024-03-23T03:14:27;96997.5;;;14.33;56.672
24868;BME280;12941;48.698;9.310;2024-03-23T03:15:33;96998.5;;;14.32;56.705
24868;BME280;12941;48.698;9.310;2024-03-23T03:16:37;96998.29999999999;;;14.34;56.738
24868;BME280;12941;48.698;9.310;2024-03-23T03:17:42;96991.4;;;14.34;56.827
24868;BME280;12941;48.698;9.310;2024-03-23T03:18:42;96986.90000000001;;;14.36;56.895
24868;BME280;12941;48.698;9.310;2024-03-23T03:19:47;96982.5;;;14.38;57.05
24868;BME280;12941;48.698;9.310;2024-03-23T03:20:54;96985.7;;;14.4;57.139
24868;BME280;12941;48.698;9.310;2024-03-23T03:21:57;96992.6;;;14.41;57.119
24868;BME280;12941;48.698;9.310;2024-03-23T03:23:02;96990.8;;;14.42;57.283
24868;BME280;12941;48.698;9.310;2024-03-23T03:24:03;96990.8;;;14.42;57.305
24868;BME280;12941;48.698;9.310;2024-03-23T03:25:07;96992.6;;;14.41;57.446
24868;BME280;12941;48.698;9.310;2024-03-23T03:26:13;96995.1;;;14.41;57.315
24868;BME280;12941;48.698;9.310;2024-03-23T03:27:17;97000.40000000001;;;14.4;57.508
24868;BME280;12941;48.698;9.310;2024-03-23T03:28:17;97003;;;14.4;57.181
24868;BME280;12941;48.698;9.310;2024-03-23T03:29:23;97005.7;;;14.38;55.929
24868;BME280;12941;48.698;9.310;2024-03-23T03:30:27;96999.8;;;14.36;56.133
24868;BME280;12941;48.698;9.310;2024-03-23T03:31:33;96998.2;;;14.35;56.24
24868;BME280;12941;48.698;9.310;2024-03-23T03:32:33;97000.9;;;14.34;56.293
24868;BME280;12941;48.698;9.310;2024-03-23T03:33:37;96998.2;;;14.35;56.36
24868;BME280;12941;48.698;9.310;2024-03-23T03:34:37;96996.6;;;14.34;56.283
24868;BME280;12941;48.698;9.310;2024-03-23T03:35:43;96997.40000000001;;;14.35;56.371
24868;BME280;12941;48.698;9.310;2024-03-23T03:36:43;96996.6;;;14.34;56.337
24868;BME280;12941;48.698;9.310;2024-03-23T03:37:47;96988.09999999999;;;14.32;55.769
24868;BME280;12941;48.698;9.310;2024-03-23T03:38:53;96987.2;;;14.33;55.747
24868;BME280;12941;48.698;9.310;2024-03-23T03:39:57;96984.7;;;14.32;56.083
24868;BME280;12941;48.698;9.310;2024-03-23T03:41:03;96983;;;14.32;56.215
24868;BME280;12941;48.698;9.310;2024-03-23T03:42:07;96990;;;14.3;55.995
24868;BME280;12941;48.698;9.310;2024-03-23T03:43:13;96979.7;;;14.3;56.691
24868;BME280;12941;48.698;9.310;2024-03-23T03:44:17;96979.7;;;14.3;56.441
24868;BME280;12941;48.698;9.310;2024-03-23T03:45:17;96982.5;;;14.29;56.069
24868;BME280;12941;48.698;9.310;2024-03-23T03:46:17;96976.59999999999;;;14.27;56.273
24868;BME280;12941;48.698;9.310;2024-03-23T03:47:23;96978.4;;;14.26;56.609
24868;BME280;12941;48.698;9.310;2024-03-23T03:48:28;96971.3;;;14.28;57.46
24868;BME280;12941;48.698;9.310;2024-03-23T03:49:28;96975.5;;;14.29;58.364
24868;BME280;12941;48.698;9.310;2024-03-23T03:50:33;96976.2;;;14.31;57.997
24868;BME280;12941;48.698;9.310;2024-03-23T03:51:37;96970.1;;;14.32;57.88
24868;BME280;12941;48.698;9.310;2024-03-23T03:52:38;96969.2;;;14.33;58.01
24868;BME280;12941;48.698;9.310;2024-03-23T03:53:38;96963.7;;;14.36;58.385
24868;BME280;12941;48.698;9.310;2024-03-23T03:54:43;96956.6;;;14.4;58.628
24868;BME280;12941;48.698;9.310;2024-03-23T03:55:47;96956.5;;;14.41;58.621
24868;BME280;12941;48.698;9.310;2024-03-23T03:56:47;96956.3;;;14.43;58.84
24868;BME280;12941;48.698;9.310;2024-03-23T03:57:53;96947.79999999999;;;14.42;59.382
24868;BME280;12941;48.698;9.310;2024-03-23T03:58:58;96942.6;;;14.42;59.089
24868;BME280;12941;48.698;9.310;2024-03-23T03:59:58;96948.6;;;14.43;59.068
24868;BME280;12941;48.698;9.310;2024-03-23T04:01:03;96945.9;;;14.44;58.961
24868;BME280;12941;48.698;9.310;2024-03-23T04:02:03;96945;;;14.45;58.8
24868;BME280;12941;48.698;9.310;2024-03-23T04:03:08;96937;;;14.49;58.804
24868;BME280;12941;48.698;9.310;2024-03-23T04:04:13;96926.4;;;14.52;58.905
24868;BME280;12941;48.698;9.310;2024-03-23T04:05:18;96926.09999999999;;;14.55;59.062
24868;BME280;12941;48.698;9.310;2024-03-23T04:06:23;96919.3;;;14.54;59.071
24868;BME280;12941;48.698;9.310;2024-03-23T04:07:23;96915.3;;;14.51;59.949
24868;BME280;12941;48.698;9.310;2024-03-23T04:08:28;96909.79999999999;;;14.54;60.008
24868;BME280;12941;48.698;9.310;2024-03-23T04:09:33;96905.5;;;14.55;60.095
24868;BME280;12941;48.698;9.310;2024-03-23T04:10:38;96911.7;;;14.52;59.863
24868;BME280;12941;48.698;9.310;2024-03-23T04:11:38;96904.8;;;14.53;59.711
24868;BME280;12941;48.698;9.310;2024-03-23T04:12:38;96893.8;;;14.51;59.883
24868;BME280;12941;48.698;9.310;2024-03-23T04:13:38;96907.6;;;14.5;59.903
24868;BME280;12941;48.698;9.310;2024-03-23T04:14:43;96894.3;;;14.44;59.798
24868;BME280;12941;48.698;9.310;2024-03-23T04:15:48;96898.1;;;14.4;60.032
24868;BME280;12941;48.698;9.310;2024-03-23T04:16:53;96903.5;;;14.37;60.224
24868;BME280;12941;48.698;9.310;2024-03-23T04:17:58;96898.6;;;14.34;60.351
24868;BME280;12941;48.698;9.310;2024-03-23T04:18:58;96899.7;;;14.32;60.51
24868;BME280;12941;48.698;9.310;2024-03-23T04:20:03;96905.2;;;14.27;60.655
24868;BME280;12941;48.698;9.310;2024-03-23T04:21:03;96886.40000000001;;;14.27;61.111
24868;BME280;12941;48.698;9.310;2024-03-23T04:22:03;96887.5;;;14.24;61.086
24868;BME280;12941;48.698;9.310;2024-03-23T04:23:03;96885.79999999999;;;14.23;61.552
24868;BME280;12941;48.698;9.310;2024-03-23T04:24:08;96881.9;;;14.19;61.535
24868;BME280;12941;48.698;9.310;2024-03-23T04:25:08;96869.8;;;14.2;61.068
24868;BME280;12941;48.698;9.310;2024-03-23T04:26:08;96867.4;;;14.18;61.577
24868;BME280;12941;48.698;9.310;2024-03-23T04:27:13;96862.7;;;14.12;61.688
24868;BME280;12941;48.698;9.310;2024-03-23T04:28:18;96865.3;;;14.12;61.655
24868;BME280;12941;48.698;9.310;2024-03-23T04:29:23;96857.8;;;14.09;61.705
24868;BME280;12941;48.698;9.310;2024-03-23T04:30:23;96854.6;;;14.07;62.408
24868;BME280;12941;48.698;9.310;2024-03-23T04:31:28;96850.59999999999;;;14.03;62.445
24868;BME280;12941;48.698;9.310;2024-03-23T04:32:28;96849.1;;;14;62.453
24868;BME280;12941;48.698;9.310;2024-03-23T04:33:33;96840.20000000001;;;13.95;63.042
24868;BME280;12941;48.698;9.310;2024-03-23T04:34:38;96847.2;;;13.93;63.376
24868;BME280;12941;48.698;9.310;2024-03-23T04:35:38;96845.6;;;13.92;63.492
24868;BME280;12941;48.698;9.310;2024-03-23T04:36:43;96844.9;;;13.9;63.771
24868;BME280;12941;48.698;9.310;2024-03-23T04:37:43;96850.7;;;13.92;63.764
24868;BME280;12941;48.698;9.310;2024-03-23T04:38:48;96852.5;;;13.91;63.915
24868;BME280;12941;48.698;9.310;2024-03-23T04:39:48;96850.59999999999;;;13.93;64.07
24868;BME280;12941;48.698;9.310;2024-03-23T04:40:53;96852.4;;;13.93;64.222
24868;BME280;12941;48.698;9.310;2024-03-23T04:41:58;96845.8;;;13.89;64.367
24868;BME280;12941;48.698;9.310;2024-03-23T04:42:58;96851;;;13.89;64.486
24868;BME280;12941;48.698;9.310;2024-03-23T04:43:58;96841.5;;;13.89;64.455
24868;BME280;12941;48.698;9.310;2024-03-23T04:45:03;96847.2;;;13.93;64.525
24868;BME280;12941;48.698;9.310;2024-03-23T04:46:03;96847.2;;;13.93;64.645
24868;BME280;12941;48.698;9.310;2024-03-23T04:47:08;96841;;;13.95;64.55
24868;BME280;12941;48.698;9.310;2024-03-23T04:48:13;96840.9;;;13.97;64.51
24868;BME280;12941;48.698;9.310;2024-03-23T04:49:18;96840;;;13.96;64.573
24868;BME280;12941;48.698;9.310;2024-03-23T04:50:23;96855.3;;;13.98;64.619
24868;BME280;12941;48.698;9.310;2024-03-23T04:51:28;96846;;;13.97;64.521
24868;BME280;12941;48.698;9.310;2024-03-23T04:52:28;96856.3;;;13.97;64.716
24868;BME280;12941;48.698;9.310;2024-03-23T04:53:33;96852.8;;;13.98;64.912
24868;BME280;12941;48.698;9.310;2024-03-23T04:54:38;96847.40000000001;;;14.01;65.09
24868;BME280;12941;48.698;9.310;2024-03-23T04:55:38;96848;;;14.03;65.146
24868;BME280;12941;48.698;9.310;2024-03-23T04:56:38;96846.7;;;14.08;64.928
24868;BME280;12941;48.698;9.310;2024-03-23T04:57:38;96848.1;;;14.12;65.117
24868;BME280;12941;48.698;9.310;2024-03-23T04:58:38;96846.5;;;14.21;64.882
24868;BME280;12941;48.698;9.310;2024-03-23T04:59:38;96856.3;;;14.27;64.673
24868;BME280;12941;48.698;9.310;2024-03-23T05:00:43;96861.7;;;14.34;65.073
24868;BME280;12941;48.698;9.310;2024-03-23T05:01:48;96866.09999999999;;;14.43;64.425
24868;BME280;12941;48.698;9.310;2024-03-23T05:02:53;96870.5;;;14.52;64.515
24868;BME280;12941;48.698;9.310;2024-03-23T05:03:58;96863;;;14.59;64.264
24868;BME280;12941;48.698;9.310;2024-03-23T05:04:58;96861.6;;;14.64;63.631
24868;BME280;12941;48.698;9.310;2024-03-23T05:06:03;96884.5;;;14.69;63.269
24868;BME280;12941;48.698;9.310;2024-03-23T05:07:03;96903.7;;;14.74;64.481
24868;BME280;12941;48.698;9.310;2024-03-23T05:08:03;96918;;;14.78;65.51
24868;BME280;12941;48.698;9.310;2024-03-23T05:09:08;96937.40000000001;;;14.83;66.753
24868;BME280;12941;48.698;9.310;2024-03-23T05:10:13;96945.7;;;14.86;66.737
24868;BME280;12941;48.698;9.310;2024-03-23T05:11:13;96950.59999999999;;;14.89;67.958
24868;BME280;12941;48.698;9.310;2024-03-23T05:12:18;96944.5;;;14.9;69.022
24868;BME280;12941;48.698;9.310;2024-03-23T05:13:23;96936.5;;;14.93;68.268
24868;BME280;12941;48.698;9.310;2024-03-23T05:14:28;96933.6;;;14.96;69.196
24868;BME280;12941;48.698;9.310;2024-03-23T05:15:28;96936.90000000001;;;14.98;70.078
24868;BME280;12941;48.698;9.310;2024-03-23T05:16:28;96934.2;;;15;70.959
24868;BME280;12941;48.698;9.310;2024-03-23T05:17:33;96940;;;15.02;71.905
24868;BME280;12941;48.698;9.310;2024-03-23T05:18:38;96942.5;;;15.03;72.485
24868;BME280;12941;48.698;9.310;2024-03-23T05:19:43;96926.70000000001;;;15.06;73.02
24868;BME280;12941;48.698;9.310;2024-03-23T05:20:43;96916.4;;;15.06;73.648
24868;BME280;12941;48.698;9.310;2024-03-23T05:21:48;96905.9;;;15.08;73.207
24868;BME280;12941;48.698;9.310;2024-03-23T05:22:49;96920.5;;;15.09;74.293
24868;BME280;12941;48.698;9.310;2024-03-23T05:23:48;96923.90000000001;;;15.09;74.793
24868;BME280;12941;48.698;9.310;2024-03-23T05:24:48;96923.2;;;15.07;75.506
24868;BME280;12941;48.698;9.310;2024-03-23T05:25:53;96939.5;;;15.08;75.842
24868;BME280;12941;48.698;9.310;2024-03-23T05:26:58;96943;;;15.07;76.003
24868;BME280;12941;48.698;9.310;2024-03-23T05:27:58;96940.3;;;15.08;76.179
24868;BME280;12941;48.698;9.310;2024-03-23T05:29:03;96947.1;;;15.09;76.636
24868;BME280;12941;48.698;9.310;2024-03-23T05:30:03;96946.2;;;15.1;75.575
24868;BME280;12941;48.698;9.310;2024-03-23T05:31:03;96941.7;;;15.12;76.175
24868;BME280;12941;48.698;9.310;2024-03-23T05:32:08;96950.09999999999;;;15.15;76.568
24868;BME280;12941;48.698;9.310;2024-03-23T05:33:08;96944.9;;;15.15;75.961
24868;BME280;12941;48.698;9.310;2024-03-23T05:34:13;96940.5;;;15.17;75.553
24868;BME280;12941;48.698;9.310;2024-03-23T05:35:13;96943;;;15.17;75.802
24868;BME280;12941;48.698;9.310;2024-03-23T05:36:18;96948.90000000001;;;15.19;75.61
24868;BME280;12941;48.698;9.310;2024-03-23T05:37:18;96954.2;;;15.17;75.349
24868;BME280;12941;48.698;9.310;2024-03-23T05:38:18;96954;;;15.19;74.905
24868;BME280;12941;48.698;9.310;2024-03-23T05:39:18;96953.09999999999;;;15.2;74.941
24868;BME280;12941;48.698;9.310;2024-03-23T05:40:18;96946;;;15.22;75.443
24868;BME280;12941;48.698;9.310;2024-03-23T05:41:23;96946.3;;;15.19;74.569
24868;BME280;12941;48.698;9.310;2024-03-23T05:42:23;96950.7;;;15.18;74.081
24868;BME280;12941;48.698;9.310;2024-03-23T05:43:24;96955.7;;;15.2;74.29
24868;BME280;12941;48.698;9.310;2024-03-23T05:44:28;96956.6;;;15.19;73.116
24868;BME280;12941;48.698;9.310;2024-03-23T05:45:33;96968.9;;;15.17;72.646
24868;BME280;12941;48.698;9.310;2024-03-23T05:46:33;96970.1;;;15.12;72.217
24868;BME280;12941;48.698;9.310;2024-03-23T05:47:38;96969.4;;;15.1;72.518
24868;BME280;12941;48.698;9.310;2024-03-23T05:48:38;96980.7;;;15.09;71.713
24868;BME280;12941;48.698;9.310;2024-03-23T05:49:44;96986.6;;;15.1;71.572
24868;BME280;12941;48.698;9.310;2024-03-23T05:50:48;96990;;;15.1;72.333
24868;BME280;12941;48.698;9.310;2024-03-23T05:51:48;97001.2;;;15.11;71.986
24868;BME280;12941;48.698;9.310;2024-03-23T05:52:48;96997.79999999999;;;15.1;72.29
24868;BME280;12941;48.698;9.310;2024-03-23T05:53:56;97003.59999999999;;;15.12;72.141
24868;BME280;12941;48.698;9.310;2024-03-23T05:54:58;97000.09999999999;;;15.13;72.045
24868;BME280;12941;48.698;9.310;2024-03-23T05:56:03;97003.59999999999;;;15.12;71.457
24868;BME280;12941;48.698;9.310;2024-03-23T05:57:04;97007.2;;;15.11;71.857
24868;BME280;12941;48.698;9.310;2024-03-23T05:58:03;97005.5;;;15.1;71.834
24868;BME280;12941;48.698;9.310;2024-03-23T05:59:03;97005.5;;;15.1;72.604
24868;BME280;12941;48.698;9.310;2024-03-23T06:00:09;96999.3;;;15.13;71.772
24868;BME280;12941;48.698;9.310;2024-03-23T06:01:13;97010.40000000001;;;15.13;72.555
24868;BME280;12941;48.698;9.310;2024-03-23T06:02:13;97003.59999999999;;;15.12;72.597
24868;BME280;12941;48.698;9.310;2024-03-23T06:03:13;97010.40000000001;;;15.13;71.709
24868;BME280;12941;48.698;9.310;2024-03-23T06:04:13;97007.7;;;15.15;72.026
24868;BME280;12941;48.698;9.310;2024-03-23T06:05:18;96996.6;;;15.15;71.667
24868;BME280;12941;48.698;9.310;2024-03-23T06:06:23;97008.5;;;15.16;72.016
24868;BME280;12941;48.698;9.310;2024-03-23T06:07:23;97010.40000000001;;;15.13;71.676
24868;BME280;12941;48.698;9.310;2024-03-23T06:08:23;97014.8;;;15.13;71.175
24868;BME280;12941;48.698;9.310;2024-03-23T06:09:23;97010.40000000001;;;15.13;70.504
24868;BME280;12941;48.698;9.310;2024-03-23T06:10:29;97022.40000000001;;;15.15;69.778
24868;BME280;12941;48.698;9.310;2024-03-23T06:11:34;97013.8;;;15.14;69.604
24868;BME280;12941;48.698;9.310;2024-03-23T06:12:38;97014.5;;;15.06;68.168
24868;BME280;12941;48.698;9.310;2024-03-23T06:13:38;97021;;;15.1;68.023
24868;BME280;12941;48.698;9.310;2024-03-23T06:14:39;97031.6;;;15.07;67.878
24868;BME280;12941;48.698;9.310;2024-03-23T06:15:39;97031.9;;;15.04;68.697
24868;BME280;12941;48.698;9.310;2024-03-23T06:16:44;97040.8;;;15;67.997
24868;BME280;12941;48.698;9.310;2024-03-23T06:17:44;97040.59999999999;;;14.94;67.997